Time;durP1;ratioP1;P1;durP2;ratioP2;P2;SDS_P1;SDS_P2;PMS_P1;PMS_P2;Temp;Humidity;BMP_temperature;BMP_pressure;BME280_temperature;BME280_humidity;BME280_pressure;Samples;Min_cycle;Max_cycle;Signal;HPM_P1;HPM_P2
2023/10/08 00:01:55;;;;;;;4.97;1.57;;;;;;;;;;5098334;28;20507;-82
2023/10/08 00:04:21;;;;;;;12.93;1.93;;;;;;;;;;5098353;28;20487;-82
2023/10/08 00:06:47;;;;;;;9.33;1.67;;;;;;;;;;5116513;28;20514;-81
2023/10/08 00:09:15;;;;;;;9.70;1.67;;;;;;;;;;5116515;28;20421;-81
2023/10/08 00:11:41;;;;;;;3.47;1.17;;;;;;;;;;5098215;28;20420;-81
2023/10/08 00:14:15;;;;;;;6.80;1.40;;;;;;;;;;5116331;28;20413;-82
2023/10/08 00:16:43;;;;;;;6.50;1.70;;;;;;;;;;5116372;28;20410;-81
2023/10/08 00:19:11;;;;;;;5.70;1.40;;;;;;;;;;5116393;28;20417;-81
2023/10/08 00:21:38;;;;;;;6.00;1.53;;;;;;;;;;5116148;28;20405;-80
2023/10/08 00:24:06;;;;;;;6.77;1.27;;;;;;;;;;5116442;28;20810;-81
2023/10/08 00:26:32;;;;;;;3.80;1.23;;;;;;;;;;5098105;28;20563;-80
2023/10/08 00:29:06;;;;;;;3.67;0.87;;;;;;;;;;5116448;28;20422;-81
2023/10/08 00:31:56;;;;;;;5.43;1.30;;;;;;;;;;5116128;28;20390;-80
2023/10/08 00:34:21;;;;;;;6.07;1.73;;;;;;;;;;5114554;28;20402;-81
2023/10/08 00:36:48;;;;;;;5.87;1.00;;;;;;;;;;5114938;28;20409;-80
2023/10/08 00:39:22;;;;;;;7.97;1.10;;;;;;;;;;5097691;28;20430;-83
2023/10/08 00:41:48;;;;;;;9.73;2.00;;;;;;;;;;5097714;28;20797;-82
2023/10/08 00:44:23;;;;;;;6.07;1.30;;;;;;;;;;5097237;28;20468;-81
2023/10/08 00:46:49;;;;;;;6.90;1.70;;;;;;;;;;5116649;28;20416;-82
2023/10/08 00:49:38;;;;;;;4.23;1.00;;;;;;;;;;5098066;28;20421;-82
2023/10/08 00:54:34;;;;;;;9.07;1.60;;;;;;;;;;5108637;28;20438;-87
2023/10/08 00:57:04;;;;;;;4.90;1.63;;;;;;;;;;5110359;28;20415;-86
2023/10/08 00:59:44;;;;;;;5.07;1.47;;;;;;;;;;5114618;28;20419;-86
2023/10/08 01:02:14;;;;;;;6.13;1.20;;;;;;;;;;5116216;28;20392;-87
2023/10/08 01:04:43;;;;;;;5.13;1.40;;;;;;;;;;5114764;28;20480;-87
2023/10/08 01:07:15;;;;;;;7.33;1.60;;;;;;;;;;5114706;28;20463;-85
2023/10/08 01:09:42;;;;;;;5.47;0.80;;;;;;;;;;5113912;28;20435;-85
2023/10/08 01:12:27;;;;;;;7.27;1.70;;;;;;;;;;5115568;28;20892;-86
2023/10/08 01:14:53;;;;;;;5.50;1.20;;;;;;;;;;5127407;27;20456;-86
2023/10/08 01:17:24;;;;;;;7.13;1.90;;;;;;;;;;5097278;28;20407;-85
2023/10/08 01:21:04;;;;;;;6.57;1.23;;;;;;;;;;5097188;28;20450;-86
2023/10/08 01:22:51;;;;;;;6.60;1.27;;;;;;;;;;5089189;28;20757;-84
2023/10/08 01:25:23;;;;;;;3.60;0.97;;;;;;;;;;5112281;28;21016;-91
2023/10/08 01:27:50;;;;;;;7.63;0.67;;;;;;;;;;5115364;28;20457;-85
2023/10/08 01:30:17;;;;;;;10.23;2.70;;;;;;;;;;5096341;28;20412;-90
2023/10/08 01:32:43;;;;;;;11.23;1.80;;;;;;;;;;5096910;28;20444;-90
2023/10/08 01:35:22;;;;;;;6.77;1.00;;;;;;;;;;5114853;28;20415;-88
2023/10/08 01:37:52;;;;;;;6.97;0.77;;;;;;;;;;5096811;28;20922;-87
2023/10/08 01:40:18;;;;;;;6.47;1.40;;;;;;;;;;5096438;28;20415;-86
2023/10/08 01:42:45;;;;;;;6.90;1.23;;;;;;;;;;5114557;28;20414;-86
2023/10/08 01:45:13;;;;;;;10.83;1.30;;;;;;;;;;5095833;28;20469;-87
2023/10/08 01:47:39;;;;;;;8.17;1.67;;;;;;;;;;5096425;28;20412;-86
2023/10/08 01:50:12;;;;;;;8.97;1.10;;;;;;;;;;5096480;28;20926;-84
2023/10/08 01:52:40;;;;;;;10.20;0.97;;;;;;;;;;5112113;28;20401;-88
2023/10/08 01:55:10;;;;;;;6.20;0.83;;;;;;;;;;5114784;28;20823;-89
2023/10/08 01:57:36;;;;;;;2.90;0.63;;;;;;;;;;5114645;28;20396;-85
2023/10/08 02:00:02;;;;;;;5.57;1.17;;;;;;;;;;5114192;28;20862;-85
2023/10/08 02:02:31;;;;;;;7.63;0.73;;;;;;;;;;5095935;28;20924;-85
2023/10/08 02:04:57;;;;;;;4.03;1.07;;;;;;;;;;5095833;28;20464;-87
2023/10/08 02:07:23;;;;;;;5.90;1.30;;;;;;;;;;5114940;28;20425;-86
2023/10/08 02:09:52;;;;;;;4.57;0.80;;;;;;;;;;5114755;28;20421;-86
2023/10/08 02:12:18;;;;;;;6.07;0.73;;;;;;;;;;5114514;28;20419;-85
2023/10/08 02:14:44;;;;;;;4.20;0.43;;;;;;;;;;5113968;28;20889;-84
2023/10/08 02:17:11;;;;;;;5.23;0.97;;;;;;;;;;5114293;28;20403;-84
2023/10/08 02:19:41;;;;;;;6.50;0.40;;;;;;;;;;5114248;28;20521;-84
2023/10/08 02:22:09;;;;;;;4.23;1.10;;;;;;;;;;5114312;28;20426;-86
2023/10/08 02:24:35;;;;;;;5.00;0.80;;;;;;;;;;5114069;28;20478;-84
2023/10/08 02:27:01;;;;;;;2.83;0.33;;;;;;;;;;5106392;28;20847;-84
2023/10/08 02:29:29;;;;;;;7.97;1.00;;;;;;;;;;5105740;28;20468;-86
2023/10/08 02:31:55;;;;;;;5.27;0.80;;;;;;;;;;5093726;28;20168;-85
2023/10/08 02:34:21;;;;;;;4.90;0.83;;;;;;;;;;5093675;28;20407;-87
2023/10/08 02:36:47;;;;;;;5.30;0.63;;;;;;;;;;5108456;28;20423;-87
2023/10/08 02:39:14;;;;;;;4.83;0.97;;;;;;;;;;5113935;28;20405;-84
2023/10/08 02:41:47;;;;;;;4.53;0.60;;;;;;;;;;5113827;28;20408;-84
2023/10/08 02:44:14;;;;;;;4.80;0.60;;;;;;;;;;5113378;28;20459;-87
2023/10/08 02:46:51;;;;;;;3.13;0.47;;;;;;;;;;5112631;28;20460;-84
2023/10/08 02:49:20;;;;;;;5.03;0.77;;;;;;;;;;5113862;28;20415;-84
2023/10/08 02:51:47;;;;;;;3.70;1.13;;;;;;;;;;5112446;28;20424;-87
2023/10/08 02:54:20;;;;;;;2.83;0.57;;;;;;;;;;5113775;28;20403;-85
2023/10/08 02:56:49;;;;;;;7.97;0.87;;;;;;;;;;5113659;28;20445;-86
2023/10/08 02:59:22;;;;;;;6.40;0.67;;;;;;;;;;5113294;28;20428;-84
2023/10/08 03:01:49;;;;;;;7.10;0.83;;;;;;;;;;5113991;28;20427;-87
2023/10/08 03:04:19;;;;;;;2.87;0.20;;;;;;;;;;5113305;28;20581;-85
2023/10/08 03:06:50;;;;;;;2.33;0.70;;;;;;;;;;5112302;28;20427;-86
2023/10/08 03:09:20;;;;;;;2.63;0.50;;;;;;;;;;5113704;28;21021;-87
2023/10/08 03:11:48;;;;;;;4.17;0.60;;;;;;;;;;5113532;28;20498;-87
2023/10/08 03:14:21;;;;;;;4.73;1.27;;;;;;;;;;5111946;28;20411;-87
2023/10/08 03:16:48;;;;;;;5.77;0.63;;;;;;;;;;5113316;28;20829;-87
2023/10/08 03:19:14;;;;;;;4.23;0.50;;;;;;;;;;5112430;28;20415;-87
2023/10/08 03:24:23;;;;;;;3.30;0.40;;;;;;;;;;5110833;28;20556;-87
2023/10/08 03:26:55;;;;;;;4.47;0.43;;;;;;;;;;5093380;28;20630;-87
2023/10/08 03:29:21;;;;;;;3.80;0.43;;;;;;;;;;5091367;28;20454;-87
2023/10/08 03:31:50;;;;;;;4.43;0.53;;;;;;;;;;5112323;28;20416;-89
2023/10/08 03:34:18;;;;;;;3.40;0.57;;;;;;;;;;5113491;28;20416;-87
2023/10/08 03:36:44;;;;;;;2.37;0.30;;;;;;;;;;5096780;28;20420;-89
2023/10/08 03:39:13;;;;;;;5.00;0.50;;;;;;;;;;5092997;28;20420;-88
2023/10/08 03:41:39;;;;;;;5.77;0.53;;;;;;;;;;5092944;28;20421;-87
2023/10/08 03:44:12;;;;;;;3.93;0.60;;;;;;;;;;5092717;28;20566;-87
2023/10/08 03:46:42;;;;;;;2.90;0.40;;;;;;;;;;5074802;28;20423;-87
2023/10/08 03:49:45;;;;;;;3.43;0.30;;;;;;;;;;5092914;28;20501;-87
2023/10/08 03:52:07;;;;;;;5.97;0.57;;;;;;;;;;5090057;28;20547;-85
2023/10/08 03:54:42;;;;;;;5.40;0.80;;;;;;;;;;5093439;28;20404;-85
2023/10/08 03:57:25;;;;;;;1.80;0.40;;;;;;;;;;5093462;28;20408;-84
2023/10/08 03:59:55;;;;;;;3.53;0.40;;;;;;;;;;5093249;28;20404;-85
2023/10/08 04:02:39;;;;;;;4.80;0.50;;;;;;;;;;5075539;28;20481;-92
2023/10/08 04:05:18;;;;;;;2.43;0.60;;;;;;;;;;5093418;28;20932;-91
2023/10/08 04:10:49;;;;;;;1.23;0.20;;;;;;;;;;5093272;28;20408;-84
2023/10/08 04:13:16;;;;;;;2.30;0.30;;;;;;;;;;5093337;28;20399;-86
2023/10/08 04:15:42;;;;;;;2.90;0.50;;;;;;;;;;5092286;28;20405;-86
2023/10/08 04:18:13;;;;;;;2.77;0.83;;;;;;;;;;5092621;28;20503;-86
2023/10/08 04:20:59;;;;;;;2.73;0.50;;;;;;;;;;5092906;28;20927;-89
2023/10/08 04:23:25;;;;;;;4.63;0.30;;;;;;;;;;5092925;28;20767;-87
2023/10/08 04:25:54;;;;;;;2.23;0.30;;;;;;;;;;5092922;28;20481;-88
2023/10/08 04:28:20;;;;;;;3.77;0.30;;;;;;;;;;5076429;28;20759;-87
2023/10/08 04:30:48;;;;;;;2.60;0.40;;;;;;;;;;5096443;28;20413;-90
2023/10/08 04:33:19;;;;;;;2.83;0.30;;;;;;;;;;5078506;28;20529;-89
2023/10/08 04:35:48;;;;;;;2.20;0.40;;;;;;;;;;5096425;28;20414;-86
2023/10/08 04:38:18;;;;;;;4.23;0.30;;;;;;;;;;5096244;28;20396;-90
2023/10/08 04:40:51;;;;;;;2.00;0.40;;;;;;;;;;5096280;28;20407;-90
2023/10/08 04:43:30;;;;;;;5.60;0.50;;;;;;;;;;5078148;28;20417;-86
2023/10/08 04:45:56;;;;;;;2.63;0.40;;;;;;;;;;5077742;28;20544;-87
2023/10/08 04:48:27;;;;;;;4.93;0.30;;;;;;;;;;5077953;28;20912;-90
2023/10/08 04:50:59;;;;;;;3.60;0.20;;;;;;;;;;5078435;28;20424;-87
2023/10/08 04:53:32;;;;;;;5.07;0.40;;;;;;;;;;5078176;28;20417;-87
2023/10/08 04:56:13;;;;;;;2.20;0.40;;;;;;;;;;5077929;28;20509;-90
2023/10/08 04:58:40;;;;;;;2.00;0.47;;;;;;;;;;5095719;28;20911;-92
2023/10/08 05:01:27;;;;;;;4.90;0.30;;;;;;;;;;5096250;28;20437;-86
2023/10/08 05:07:01;;;;;;;1.63;0.40;;;;;;;;;;5095897;28;20415;-83
2023/10/08 05:14:28;;;;;;;2.20;0.30;;;;;;;;;;5095452;28;20435;-89
2023/10/08 05:17:11;;;;;;;2.00;0.60;;;;;;;;;;5095613;28;20406;-90
2023/10/08 05:27:38;;;;;;;0.93;0.20;;;;;;;;;;5095930;28;20403;-91
2023/10/08 05:33:06;;;;;;;1.70;0.27;;;;;;;;;;5063693;28;20427;-91
2023/10/08 05:43:48;;;;;;;4.37;0.50;;;;;;;;;;5094999;28;20424;-92
2023/10/08 06:07:48;;;;;;;1.80;0.53;;;;;;;;;;5094812;28;20498;-86
2023/10/08 06:13:02;;;;;;;4.10;0.43;;;;;;;;;;5094698;28;20169;-91
2023/10/08 06:15:44;;;;;;;3.77;1.03;;;;;;;;;;5094668;28;20400;-86
2023/10/08 06:18:10;;;;;;;5.63;1.10;;;;;;;;;;5094161;28;20409;-88
2023/10/08 06:20:39;;;;;;;4.33;0.23;;;;;;;;;;5094086;28;20452;-87
2023/10/08 06:23:07;;;;;;;4.57;0.47;;;;;;;;;;5092806;28;20474;-87
2023/10/08 06:25:33;;;;;;;4.70;0.80;;;;;;;;;;5092720;28;20475;-87
2023/10/08 06:27:59;;;;;;;6.93;1.07;;;;;;;;;;5093958;28;20407;-88
2023/10/08 06:30:34;;;;;;;3.57;0.80;;;;;;;;;;5092681;28;20420;-88
2023/10/08 06:33:00;;;;;;;5.87;0.67;;;;;;;;;;5092754;28;20792;-89
2023/10/08 06:35:28;;;;;;;2.57;0.47;;;;;;;;;;5092714;28;20460;-87
2023/10/08 06:37:54;;;;;;;3.53;0.67;;;;;;;;;;5092735;28;20495;-86
2023/10/08 06:40:40;;;;;;;1.90;0.63;;;;;;;;;;5092392;28;20422;-86
2023/10/08 06:43:42;;;;;;;1.53;0.57;;;;;;;;;;5093272;28;20518;-87
2023/10/08 06:45:58;;;;;;;1.60;0.50;;;;;;;;;;5090390;28;20485;-87
2023/10/08 06:48:25;;;;;;;3.20;0.40;;;;;;;;;;5093458;28;20410;-84
2023/10/08 06:50:51;;;;;;;2.90;0.50;;;;;;;;;;5092869;28;20408;-83
2023/10/08 06:53:18;;;;;;;2.97;0.63;;;;;;;;;;5093539;28;20416;-83
2023/10/08 06:55:44;;;;;;;1.17;0.50;;;;;;;;;;5093564;28;20887;-83
2023/10/08 06:58:14;;;;;;;2.90;0.57;;;;;;;;;;5093016;28;20416;-84
2023/10/08 07:00:46;;;;;;;3.77;0.27;;;;;;;;;;5093249;28;20442;-83
2023/10/08 07:03:14;;;;;;;2.00;0.37;;;;;;;;;;5093079;28;20489;-87
2023/10/08 07:05:40;;;;;;;1.73;0.23;;;;;;;;;;5091877;28;20527;-87
2023/10/08 07:08:06;;;;;;;3.33;0.40;;;;;;;;;;5093124;28;20769;-86
2023/10/08 07:10:36;;;;;;;2.03;0.30;;;;;;;;;;5093256;28;20478;-87
2023/10/08 07:13:03;;;;;;;2.97;0.80;;;;;;;;;;5093039;28;20419;-91
2023/10/08 07:15:30;;;;;;;2.27;0.30;;;;;;;;;;5093146;28;20433;-86
2023/10/08 07:17:56;;;;;;;2.30;0.40;;;;;;;;;;5093340;28;20908;-90
2023/10/08 07:20:22;;;;;;;2.00;0.30;;;;;;;;;;5092156;28;20421;-85
2023/10/08 07:22:54;;;;;;;5.17;0.37;;;;;;;;;;5091763;28;20420;-86
2023/10/08 07:25:22;;;;;;;5.07;0.50;;;;;;;;;;5092359;28;20474;-87
2023/10/08 07:27:48;;;;;;;2.30;0.50;;;;;;;;;;5092953;28;20410;-86
2023/10/08 07:30:26;;;;;;;4.90;0.50;;;;;;;;;;5091968;28;20938;-86
2023/10/08 07:32:52;;;;;;;6.10;0.60;;;;;;;;;;5092229;28;20782;-90
2023/10/08 07:37:47;;;;;;;7.87;0.63;;;;;;;;;;5093142;28;20180;-86
2023/10/08 07:40:14;;;;;;;2.90;0.20;;;;;;;;;;5093687;28;20423;-89
2023/10/08 07:42:40;;;;;;;2.93;0.27;;;;;;;;;;5092900;28;20508;-89
2023/10/08 07:45:06;;;;;;;1.40;0.30;;;;;;;;;;5092387;28;20564;-94
2023/10/08 07:47:32;;;;;;;3.37;0.77;;;;;;;;;;5093276;28;20417;-93
2023/10/08 07:50:11;;;;;;;2.50;0.40;;;;;;;;;;5092451;28;20428;-90
2023/10/08 07:52:44;;;;;;;2.63;0.33;;;;;;;;;;5092276;28;20423;-91
2023/10/08 07:55:10;;;;;;;5.27;0.30;;;;;;;;;;5099581;28;20508;-90
2023/10/08 07:57:36;;;;;;;4.77;0.50;;;;;;;;;;5095780;28;20995;-94
2023/10/08 08:00:17;;;;;;;2.70;0.30;;;;;;;;;;5114384;28;20409;-89
2023/10/08 08:02:44;;;;;;;2.00;0.20;;;;;;;;;;5096718;28;20449;-93
2023/10/08 08:05:10;;;;;;;4.77;0.50;;;;;;;;;;5099424;28;20912;-90
2023/10/08 08:07:37;;;;;;;2.10;0.37;;;;;;;;;;5117838;28;20908;-91
2023/10/08 08:10:10;;;;;;;5.20;0.73;;;;;;;;;;5099863;28;20414;-92
2023/10/08 08:12:37;;;;;;;2.77;0.30;;;;;;;;;;5099383;28;20413;-90
2023/10/08 08:15:14;;;;;;;1.80;0.30;;;;;;;;;;5098971;28;20468;-92
2023/10/08 08:17:40;;;;;;;2.83;0.37;;;;;;;;;;5099706;28;20421;-92
2023/10/08 08:20:17;;;;;;;2.77;0.50;;;;;;;;;;5099374;28;20418;-92
2023/10/08 08:22:49;;;;;;;2.70;0.50;;;;;;;;;;5099222;28;20508;-92
2023/10/08 08:25:15;;;;;;;2.60;0.27;;;;;;;;;;5088152;28;20917;-92
2023/10/08 08:27:44;;;;;;;1.90;0.50;;;;;;;;;;5104677;28;20430;-89
2023/10/08 08:30:10;;;;;;;3.03;0.20;;;;;;;;;;5078669;28;20172;-93
2023/10/08 08:32:56;;;;;;;1.53;0.40;;;;;;;;;;5077529;28;20426;-89
2023/10/08 08:35:22;;;;;;;1.63;0.30;;;;;;;;;;5078771;28;20984;-91
2023/10/08 08:37:49;;;;;;;4.37;0.50;;;;;;;;;;5096654;28;20490;-92
2023/10/08 08:40:18;;;;;;;2.87;0.70;;;;;;;;;;5096509;28;20176;-92
2023/10/08 08:42:48;;;;;;;2.67;0.43;;;;;;;;;;5096590;28;20406;-91
2023/10/08 08:45:17;;;;;;;2.67;0.57;;;;;;;;;;5096420;28;20406;-92
2023/10/08 08:47:44;;;;;;;2.50;0.20;;;;;;;;;;5076852;28;20422;-90
2023/10/08 08:50:10;;;;;;;3.43;0.60;;;;;;;;;;5105626;28;20505;-92
2023/10/08 08:52:37;;;;;;;3.53;0.33;;;;;;;;;;5095601;28;20413;-90
2023/10/08 08:55:14;;;;;;;2.77;0.40;;;;;;;;;;5078315;28;20504;-93
2023/10/08 08:57:40;;;;;;;2.97;0.80;;;;;;;;;;5077921;28;20450;-90
2023/10/08 09:00:10;;;;;;;2.10;0.40;;;;;;;;;;5096044;28;20415;-89
2023/10/08 09:02:36;;;;;;;4.73;0.50;;;;;;;;;;5077780;28;20407;-89
2023/10/08 09:05:25;;;;;;;1.53;0.30;;;;;;;;;;5077794;28;20929;-90
2023/10/08 09:07:56;;;;;;;1.83;0.30;;;;;;;;;;5078853;28;20429;-91
2023/10/08 09:10:29;;;;;;;1.70;0.50;;;;;;;;;;5113040;28;20433;-94
2023/10/08 09:13:01;;;;;;;1.80;0.50;;;;;;;;;;5115932;28;20885;-89
2023/10/08 09:15:28;;;;;;;3.13;0.50;;;;;;;;;;5097963;28;20480;-91
2023/10/08 09:17:54;;;;;;;1.57;0.30;;;;;;;;;;5097714;28;21190;-89
2023/10/08 09:20:20;;;;;;;3.13;0.43;;;;;;;;;;5098504;28;20413;-93
2023/10/08 09:22:47;;;;;;;2.20;0.33;;;;;;;;;;5116291;28;20406;-93
2023/10/08 09:25:22;;;;;;;2.80;0.50;;;;;;;;;;5115778;28;20410;-89
2023/10/08 09:27:52;;;;;;;1.10;0.43;;;;;;;;;;5115370;28;20409;-90
2023/10/08 09:30:19;;;;;;;3.23;0.40;;;;;;;;;;5097740;28;20413;-93
2023/10/08 09:32:45;;;;;;;4.73;0.40;;;;;;;;;;5116060;28;20485;-92
2023/10/08 09:35:13;;;;;;;1.33;0.50;;;;;;;;;;5115544;28;20567;-90
2023/10/08 09:37:39;;;;;;;1.97;0.30;;;;;;;;;;5097337;28;20901;-88
2023/10/08 09:40:09;;;;;;;2.00;0.40;;;;;;;;;;5097065;28;20906;-90
2023/10/08 09:42:36;;;;;;;3.27;0.43;;;;;;;;;;5096451;28;20428;-94
2023/10/08 09:45:05;;;;;;;2.53;0.63;;;;;;;;;;5096062;28;20444;-89
2023/10/08 09:47:32;;;;;;;1.70;0.40;;;;;;;;;;5096522;28;20418;-93
2023/10/08 09:50:07;;;;;;;1.97;0.57;;;;;;;;;;5114549;28;20448;-88
2023/10/08 09:52:44;;;;;;;2.50;0.40;;;;;;;;;;5097038;28;20397;-89
2023/10/08 09:55:10;;;;;;;2.10;0.27;;;;;;;;;;5096759;28;20492;-89
2023/10/08 09:57:42;;;;;;;1.97;0.57;;;;;;;;;;5096285;28;20418;-88
2023/10/08 10:00:15;;;;;;;1.73;0.23;;;;;;;;;;5115205;28;20406;-89
2023/10/08 10:02:44;;;;;;;3.00;0.50;;;;;;;;;;5114482;28;20757;-90
2023/10/08 10:05:13;;;;;;;1.67;0.40;;;;;;;;;;5112876;28;20436;-89
2023/10/08 10:07:43;;;;;;;4.17;0.43;;;;;;;;;;5102277;28;20410;-93
2023/10/08 10:10:38;;;;;;;1.60;0.40;;;;;;;;;;5113701;28;20425;-91
2023/10/08 10:13:04;;;;;;;2.93;0.40;;;;;;;;;;5096256;28;21050;-88
2023/10/08 10:15:34;;;;;;;1.60;0.33;;;;;;;;;;5097216;28;20530;-88
2023/10/08 10:18:16;;;;;;;2.20;0.50;;;;;;;;;;5094360;28;20445;-90
2023/10/08 10:20:45;;;;;;;2.60;0.30;;;;;;;;;;5075780;28;20426;-88
2023/10/08 10:23:30;;;;;;;3.27;0.57;;;;;;;;;;5075922;28;20750;-87
2023/10/08 10:25:57;;;;;;;1.37;0.33;;;;;;;;;;5074975;28;20465;-88
2023/10/08 10:28:23;;;;;;;1.17;0.40;;;;;;;;;;5093523;28;20825;-88
2023/10/08 10:30:51;;;;;;;2.27;0.60;;;;;;;;;;5075489;28;20768;-87
2023/10/08 10:33:16;;;;;;;3.10;0.60;;;;;;;;;;5075570;28;20453;-88
2023/10/08 10:35:50;;;;;;;1.40;0.57;;;;;;;;;;5093620;28;20497;-87
2023/10/08 10:38:20;;;;;;;2.27;0.20;;;;;;;;;;5093681;28;20175;-87
2023/10/08 10:40:56;;;;;;;2.17;0.50;;;;;;;;;;5111685;28;20421;-89
2023/10/08 10:43:30;;;;;;;2.07;0.30;;;;;;;;;;5113397;28;20496;-87
2023/10/08 10:45:55;;;;;;;2.07;0.20;;;;;;;;;;5113535;28;20414;-87
2023/10/08 10:48:22;;;;;;;1.37;0.30;;;;;;;;;;5113587;28;20408;-87
2023/10/08 10:51:08;;;;;;;1.90;0.40;;;;;;;;;;5095335;28;20172;-87
2023/10/08 10:54:07;;;;;;;1.40;0.40;;;;;;;;;;5095265;28;20414;-87
2023/10/08 10:56:40;;;;;;;1.50;0.30;;;;;;;;;;5095438;28;20437;-88
2023/10/08 10:59:18;;;;;;;1.67;0.30;;;;;;;;;;5113103;28;20901;-88
2023/10/08 11:01:52;;;;;;;2.13;0.40;;;;;;;;;;5095112;28;20417;-89
2023/10/08 11:04:19;;;;;;;1.50;0.20;;;;;;;;;;5095150;28;20481;-88
2023/10/08 11:06:47;;;;;;;3.83;0.40;;;;;;;;;;5114027;28;20410;-89
2023/10/08 11:09:22;;;;;;;1.87;0.20;;;;;;;;;;5095566;28;20423;-88
2023/10/08 11:11:54;;;;;;;1.47;0.40;;;;;;;;;;5095352;28;20414;-91
2023/10/08 11:14:21;;;;;;;1.80;0.33;;;;;;;;;;5094711;28;20470;-88
2023/10/08 11:16:51;;;;;;;2.00;0.63;;;;;;;;;;5095087;28;20405;-87
2023/10/08 11:19:19;;;;;;;2.20;0.33;;;;;;;;;;5113254;28;20421;-87
2023/10/08 11:21:50;;;;;;;1.10;0.50;;;;;;;;;;5095067;28;20425;-88
2023/10/08 11:24:27;;;;;;;2.13;0.70;;;;;;;;;;5095543;28;20425;-87
2023/10/08 11:29:38;;;;;;;1.73;0.30;;;;;;;;;;5113395;28;20444;-87
2023/10/08 11:32:12;;;;;;;2.10;0.30;;;;;;;;;;5095147;28;20937;-90
2023/10/08 11:34:39;;;;;;;3.13;0.57;;;;;;;;;;5113116;28;20472;-87
2023/10/08 11:37:19;;;;;;;3.37;0.80;;;;;;;;;;5096732;28;20455;-89
2023/10/08 11:39:45;;;;;;;2.20;0.50;;;;;;;;;;5099755;28;20742;-88
2023/10/08 11:45:18;;;;;;;2.20;0.37;;;;;;;;;;5118279;28;20452;-88
2023/10/08 11:47:45;;;;;;;2.30;0.43;;;;;;;;;;5099073;28;20428;-88
2023/10/08 11:50:18;;;;;;;2.03;0.50;;;;;;;;;;5099266;28;20426;-87
2023/10/08 11:52:44;;;;;;;2.87;0.40;;;;;;;;;;5117923;28;20409;-89
2023/10/08 11:55:18;;;;;;;2.07;0.37;;;;;;;;;;5099062;28;20464;-90
2023/10/08 11:57:45;;;;;;;2.30;0.50;;;;;;;;;;5098248;28;20932;-90
2023/10/08 12:00:21;;;;;;;1.87;0.23;;;;;;;;;;5099066;28;20447;-90
2023/10/08 12:02:47;;;;;;;1.00;0.30;;;;;;;;;;5115698;28;20467;-88
2023/10/08 12:05:19;;;;;;;1.90;0.30;;;;;;;;;;5099046;28;20425;-89
2023/10/08 12:07:50;;;;;;;1.50;0.40;;;;;;;;;;5098905;28;20429;-91
2023/10/08 12:10:21;;;;;;;2.13;0.30;;;;;;;;;;5117018;28;20409;-92
2023/10/08 12:12:48;;;;;;;1.17;0.33;;;;;;;;;;5117371;28;20401;-93
2023/10/08 12:15:19;;;;;;;2.50;0.30;;;;;;;;;;5098818;28;20465;-89
2023/10/08 12:17:52;;;;;;;1.33;0.43;;;;;;;;;;5098592;28;20835;-88
2023/10/08 12:20:26;;;;;;;1.47;0.23;;;;;;;;;;5098471;28;20416;-89
2023/10/08 12:22:52;;;;;;;1.63;0.77;;;;;;;;;;5098363;28;20414;-90
2023/10/08 12:25:18;;;;;;;1.67;0.97;;;;;;;;;;5098677;28;20451;-90
2023/10/08 12:27:44;;;;;;;2.00;0.50;;;;;;;;;;5116536;28;20448;-90
2023/10/08 12:30:10;;;;;;;3.33;0.40;;;;;;;;;;5098416;28;20600;-91
2023/10/08 12:32:42;;;;;;;3.07;0.30;;;;;;;;;;5098335;28;20437;-91
2023/10/08 12:35:14;;;;;;;2.77;0.23;;;;;;;;;;5099099;28;20481;-89
2023/10/08 12:37:40;;;;;;;1.83;0.50;;;;;;;;;;5114126;28;20425;-89
2023/10/08 12:40:22;;;;;;;2.10;0.43;;;;;;;;;;5116451;28;20436;-88
2023/10/08 12:42:54;;;;;;;1.07;0.50;;;;;;;;;;5115808;28;20406;-90
2023/10/08 12:45:20;;;;;;;9.73;1.03;;;;;;;;;;5098133;28;20784;-88
2023/10/08 12:47:47;;;;;;;1.53;0.50;;;;;;;;;;5097663;28;20417;-88
2023/10/08 12:50:15;;;;;;;2.47;0.70;;;;;;;;;;5097337;28;20429;-88
2023/10/08 12:52:47;;;;;;;2.27;0.50;;;;;;;;;;5116499;28;20449;-87
2023/10/08 12:55:13;;;;;;;28.97;2.30;;;;;;;;;;5116098;28;20483;-87
2023/10/08 12:57:40;;;;;;;1.90;0.40;;;;;;;;;;5096796;28;20416;-87
2023/10/08 13:00:08;;;;;;;1.70;0.30;;;;;;;;;;5111539;28;20311;-90
2023/10/08 13:02:39;;;;;;;2.50;0.40;;;;;;;;;;5097025;28;20782;-87
2023/10/08 13:05:15;;;;;;;2.00;0.50;;;;;;;;;;5110026;28;20426;-87
2023/10/08 13:07:42;;;;;;;1.90;0.30;;;;;;;;;;5115172;28;20417;-88
2023/10/08 13:10:11;;;;;;;1.33;0.40;;;;;;;;;;5097626;28;20935;-87
2023/10/08 13:12:37;;;;;;;2.27;0.33;;;;;;;;;;5116012;28;20448;-85
2023/10/08 13:15:06;;;;;;;1.60;0.60;;;;;;;;;;5115248;28;20458;-88
2023/10/08 13:17:39;;;;;;;1.07;0.30;;;;;;;;;;5096306;28;20453;-86
2023/10/08 13:20:11;;;;;;;0.77;0.20;;;;;;;;;;5111810;28;20410;-79
2023/10/08 13:22:37;;;;;;;1.60;0.30;;;;;;;;;;5113320;28;20426;-82
2023/10/08 13:25:04;;;;;;;2.40;0.40;;;;;;;;;;5114657;28;20420;-77
2023/10/08 13:27:30;;;;;;;2.40;0.30;;;;;;;;;;5114852;28;20198;-80
2023/10/08 13:29:56;;;;;;;1.90;0.60;;;;;;;;;;5113132;28;20867;-84
2023/10/08 13:32:23;;;;;;;3.10;0.20;;;;;;;;;;5115051;28;20509;-83
2023/10/08 13:34:49;;;;;;;1.83;0.57;;;;;;;;;;5111129;28;20561;-81
2023/10/08 13:37:18;;;;;;;2.70;0.30;;;;;;;;;;5111268;28;20536;-79
2023/10/08 13:39:43;;;;;;;2.60;0.30;;;;;;;;;;5114748;28;20420;-79
2023/10/08 13:42:16;;;;;;;2.00;0.20;;;;;;;;;;5114498;28;20992;-80
2023/10/08 13:44:45;;;;;;;2.00;0.30;;;;;;;;;;5114790;28;20164;-80
2023/10/08 13:47:14;;;;;;;1.27;0.47;;;;;;;;;;5114784;28;21121;-81
2023/10/08 13:49:42;;;;;;;5.20;0.43;;;;;;;;;;5114604;28;20484;-79
2023/10/08 13:52:08;;;;;;;0.90;0.20;;;;;;;;;;5114646;28;20411;-78
2023/10/08 13:54:39;;;;;;;2.27;0.37;;;;;;;;;;5114385;28;20456;-81
2023/10/08 13:57:08;;;;;;;3.63;0.73;;;;;;;;;;5114111;28;20435;-82
2023/10/08 13:59:34;;;;;;;0.90;0.20;;;;;;;;;;5114414;28;20404;-81
2023/10/08 14:02:02;;;;;;;1.07;0.20;;;;;;;;;;5114386;28;20404;-82
2023/10/08 14:04:30;;;;;;;2.00;0.30;;;;;;;;;;5114134;28;20517;-81
2023/10/08 14:06:58;;;;;;;2.93;0.50;;;;;;;;;;5114276;28;20412;-79
2023/10/08 14:09:36;;;;;;;4.20;0.30;;;;;;;;;;5114297;28;20466;-83
2023/10/08 14:12:02;;;;;;;2.10;0.50;;;;;;;;;;5113348;28;20403;-81
2023/10/08 14:14:33;;;;;;;2.37;1.33;;;;;;;;;;5112566;28;20525;-81
2023/10/08 14:17:05;;;;;;;2.60;0.40;;;;;;;;;;5110975;28;20478;-80
2023/10/08 14:19:51;;;;;;;2.47;0.60;;;;;;;;;;5113598;28;20396;-81
2023/10/08 14:22:19;;;;;;;0.77;0.20;;;;;;;;;;5094948;28;20455;-81
2023/10/08 14:24:45;;;;;;;1.67;0.40;;;;;;;;;;5094982;28;20443;-80
2023/10/08 14:27:14;;;;;;;2.80;0.20;;;;;;;;;;5112955;28;20431;-80
2023/10/08 14:29:46;;;;;;;1.80;0.37;;;;;;;;;;5110898;28;20416;-82
2023/10/08 14:32:12;;;;;;;0.93;0.23;;;;;;;;;;5113394;28;20403;-82
2023/10/08 14:45:22;;;;;;;1.07;0.40;;;;;;;;;;5112841;28;20435;-82
2023/10/08 14:47:48;;;;;;;1.07;0.30;;;;;;;;;;5112898;28;20411;-80
2023/10/08 14:50:17;;;;;;;1.63;0.20;;;;;;;;;;5094535;28;20434;-82
2023/10/08 14:52:49;;;;;;;1.70;0.40;;;;;;;;;;5094419;28;20775;-84
2023/10/08 14:55:15;;;;;;;2.20;0.30;;;;;;;;;;5112700;28;20463;-83
2023/10/08 14:57:42;;;;;;;2.17;0.50;;;;;;;;;;5112520;28;20409;-84
2023/10/08 15:00:11;;;;;;;1.87;0.30;;;;;;;;;;5094564;28;20416;-82
2023/10/08 15:02:38;;;;;;;1.60;0.50;;;;;;;;;;5111810;28;20410;-84
2023/10/08 15:05:07;;;;;;;1.27;0.30;;;;;;;;;;5110382;28;20430;-82
2023/10/08 15:07:34;;;;;;;2.80;0.33;;;;;;;;;;5110914;28;20402;-82
2023/10/08 15:10:00;;;;;;;1.77;0.40;;;;;;;;;;5112580;28;20432;-82
2023/10/08 15:12:27;;;;;;;2.13;0.60;;;;;;;;;;5093724;28;20405;-81
2023/10/08 15:14:53;;;;;;;2.97;0.80;;;;;;;;;;5112679;28;20533;-82
2023/10/08 15:17:19;;;;;;;1.53;0.30;;;;;;;;;;5111927;28;20403;-82
2023/10/08 15:19:46;;;;;;;3.00;0.50;;;;;;;;;;5093293;28;20446;-83
2023/10/08 15:22:12;;;;;;;1.37;0.20;;;;;;;;;;5110938;28;20415;-84
2023/10/08 15:24:39;;;;;;;1.60;0.23;;;;;;;;;;5109369;28;20408;-84
2023/10/08 15:27:10;;;;;;;2.90;0.23;;;;;;;;;;5112258;28;20416;-83
2023/10/08 15:29:37;;;;;;;2.03;0.20;;;;;;;;;;5113087;28;20425;-81
2023/10/08 15:32:03;;;;;;;6.00;0.50;;;;;;;;;;5112920;28;20406;-84
2023/10/08 15:34:29;;;;;;;3.60;0.50;;;;;;;;;;5112642;28;20470;-82
2023/10/08 15:36:55;;;;;;;6.53;3.30;;;;;;;;;;5112870;28;20419;-81
2023/10/08 15:39:24;;;;;;;3.60;0.97;;;;;;;;;;5112471;28;20432;-81
2023/10/08 15:41:53;;;;;;;4.53;1.00;;;;;;;;;;5112576;28;20462;-81
2023/10/08 15:44:22;;;;;;;4.00;1.10;;;;;;;;;;5113163;28;20428;-81
2023/10/08 15:46:51;;;;;;;4.17;0.50;;;;;;;;;;5113085;28;20408;-82
2023/10/08 15:49:19;;;;;;;3.97;0.80;;;;;;;;;;5094778;28;20900;-82
2023/10/08 15:51:45;;;;;;;3.90;0.50;;;;;;;;;;5112780;28;20511;-81
2023/10/08 15:54:11;;;;;;;4.73;0.90;;;;;;;;;;5112959;28;20984;-81
2023/10/08 15:56:37;;;;;;;2.50;0.77;;;;;;;;;;5094375;28;20455;-82
2023/10/08 15:59:04;;;;;;;2.50;0.40;;;;;;;;;;5113002;28;20435;-82
2023/10/08 16:01:30;;;;;;;3.60;0.60;;;;;;;;;;5094604;28;20915;-81
2023/10/08 16:03:58;;;;;;;4.07;0.63;;;;;;;;;;5112793;28;20500;-81
2023/10/08 16:06:24;;;;;;;3.27;0.70;;;;;;;;;;5112948;28;20752;-82
2023/10/08 16:08:50;;;;;;;2.43;0.57;;;;;;;;;;5113012;28;20415;-83
2023/10/08 16:11:16;;;;;;;1.83;0.50;;;;;;;;;;5113052;28;20840;-81
2023/10/08 16:13:43;;;;;;;4.30;0.53;;;;;;;;;;5112691;28;20804;-83
2023/10/08 16:16:12;;;;;;;1.73;0.50;;;;;;;;;;5112812;28;20689;-85
2023/10/08 16:18:40;;;;;;;3.83;1.17;;;;;;;;;;5112805;28;20496;-84